Time;durP1;ratioP1;P1;durP2;ratioP2;P2;SDS_P1;SDS_P2;PMS_P1;PMS_P2;Temp;Humidity;BMP_temperature;BMP_pressure;BME280_temperature;BME280_humidity;BME280_pressure;Samples;Min_cycle;Max_cycle;Signal;HPM_P1;HPM_P2
2021/12/20 00:00:54;;;;;;;;;;;6.00;91.30;;;;;;5038420;28;19936;-77
2021/12/20 00:03:19;;;;;;;;;;;6.00;91.30;;;;;;5038391;28;19912;-78
2021/12/20 00:05:45;;;;;;;;;;;6.00;91.30;;;;;;5038339;28;20283;-77
2021/12/20 00:08:11;;;;;;;;;;;6.00;91.30;;;;;;5038128;28;20470;-78
2021/12/20 00:10:36;;;;;;;;;;;6.00;91.40;;;;;;5036978;28;19924;-78
2021/12/20 00:13:02;;;;;;;;;;;6.00;91.40;;;;;;5036929;28;19911;-77
2021/12/20 00:15:28;;;;;;;;;;;6.00;91.40;;;;;;5038135;28;20398;-77
2021/12/20 00:17:53;;;;;;;;;;;6.00;91.40;;;;;;5038451;28;19962;-77
2021/12/20 00:20:19;;;;;;;;;;;6.00;91.40;;;;;;5038023;28;19974;-77
2021/12/20 00:22:45;;;;;;;;;;;6.00;91.40;;;;;;5038273;28;19927;-77
2021/12/20 00:25:11;;;;;;;;;;;6.00;91.40;;;;;;5037886;28;19984;-77
2021/12/20 00:27:37;;;;;;;;;;;6.00;91.40;;;;;;5038252;28;19905;-77
2021/12/20 00:30:07;;;;;;;;;;;6.00;91.40;;;;;;5036601;28;19912;-77
2021/12/20 00:32:32;;;;;;;;;;;6.00;91.40;;;;;;5038200;28;20307;-77
2021/12/20 00:34:58;;;;;;;;;;;6.10;91.50;;;;;;5037850;28;19905;-77
2021/12/20 00:40:21;;;;;;;;;;;6.10;91.50;;;;;;5037619;28;20463;-77
2021/12/20 00:42:49;;;;;;;;;;;6.10;91.40;;;;;;5037804;28;20380;-77
2021/12/20 00:45:15;;;;;;;;;;;6.10;91.40;;;;;;5037900;28;19905;-77
2021/12/20 00:47:41;;;;;;;;;;;6.10;91.50;;;;;;5037788;28;19908;-77
2021/12/20 00:50:08;;;;;;;;;;;6.10;91.50;;;;;;5037967;28;19905;-77
2021/12/20 00:52:34;;;;;;;;;;;6.10;91.50;;;;;;5037547;28;19909;-77
2021/12/20 00:55:00;;;;;;;;;;;6.10;91.50;;;;;;5039327;28;19911;-77
2021/12/20 00:57:25;;;;;;;;;;;6.10;91.50;;;;;;5041834;28;19970;-79
2021/12/20 00:59:51;;;;;;;;;;;6.10;91.40;;;;;;5041909;28;19916;-75
2021/12/20 01:02:16;;;;;;;;;;;6.10;91.40;;;;;;5041753;28;19909;-75
2021/12/20 01:04:42;;;;;;;;;;;6.10;91.40;;;;;;5041856;28;19990;-75
2021/12/20 01:07:08;;;;;;;;;;;6.10;91.30;;;;;;5041443;28;20253;-75
2021/12/20 01:09:34;;;;;;;;;;;6.10;91.40;;;;;;5041549;28;20027;-76
2021/12/20 01:12:04;;;;;;;;;;;6.10;91.40;;;;;;5041568;28;19991;-77
2021/12/20 01:14:33;;;;;;;;;;;6.20;91.50;;;;;;5041796;28;19999;-77
2021/12/20 01:17:04;;;;;;;;;;;6.20;91.50;;;;;;5041497;28;20310;-77
2021/12/20 01:19:30;;;;;;;;;;;6.10;91.50;;;;;;5041747;28;19955;-76
2021/12/20 01:21:56;;;;;;;;;;;6.20;91.60;;;;;;5041107;28;19909;-76
2021/12/20 01:24:21;;;;;;;;;;;6.20;91.60;;;;;;5041244;28;19908;-77
2021/12/20 01:26:47;;;;;;;;;;;6.20;91.50;;;;;;5040391;28;20386;-77
2021/12/20 01:29:13;;;;;;;;;;;6.20;91.50;;;;;;5041535;28;19905;-77
2021/12/20 01:31:38;;;;;;;;;;;6.20;91.50;;;;;;5039831;28;19912;-77
2021/12/20 01:34:04;;;;;;;;;;;6.20;91.40;;;;;;5041121;28;19928;-77
2021/12/20 01:36:30;;;;;;;;;;;6.20;91.40;;;;;;5040772;28;19912;-77
2021/12/20 01:38:55;;;;;;;;;;;6.20;91.40;;;;;;5041072;28;19905;-77
2021/12/20 01:41:21;;;;;;;;;;;6.10;91.30;;;;;;5040964;28;19971;-77
2021/12/20 01:43:47;;;;;;;;;;;6.10;91.30;;;;;;5041034;28;20352;-77
2021/12/20 01:46:12;;;;;;;;;;;6.10;91.40;;;;;;5040917;28;19955;-77
2021/12/20 01:48:40;;;;;;;;;;;6.10;91.60;;;;;;5040998;28;19905;-77
2021/12/20 01:53:32;;;;;;;;;;;6.10;91.30;;;;;;5040871;28;19982;-77
2021/12/20 01:55:58;;;;;;;;;;;6.10;91.30;;;;;;5040675;28;19906;-77
2021/12/20 01:58:24;;;;;;;;;;;6.20;91.30;;;;;;5041045;28;19909;-77
2021/12/20 02:03:37;;;;;;;;;;;6.10;91.40;;;;;;5040600;28;19909;-77
2021/12/20 02:06:06;;;;;;;;;;;6.10;91.30;;;;;;5039305;28;19951;-77
2021/12/20 02:08:32;;;;;;;;;;;6.20;91.40;;;;;;5040574;28;19955;-77
2021/12/20 02:10:59;;;;;;;;;;;6.10;91.30;;;;;;5040570;28;20352;-77
2021/12/20 02:13:28;;;;;;;;;;;6.20;91.40;;;;;;5040497;28;19905;-77
2021/12/20 02:15:56;;;;;;;;;;;6.20;91.40;;;;;;5040725;28;19959;-78
2021/12/20 02:18:22;;;;;;;;;;;6.10;91.40;;;;;;5040236;28;19909;-77
2021/12/20 02:20:47;;;;;;;;;;;6.10;91.40;;;;;;5040593;28;20268;-77
2021/12/20 02:23:13;;;;;;;;;;;6.10;91.30;;;;;;5040345;28;20445;-78
2021/12/20 02:25:39;;;;;;;;;;;6.10;91.30;;;;;;5039285;28;20043;-77
2021/12/20 02:28:12;;;;;;;;;;;6.10;91.30;;;;;;5040115;28;19905;-77
2021/12/20 02:30:53;;;;;;;;;;;6.10;91.20;;;;;;5040549;28;20295;-77
2021/12/20 02:38:50;;;;;;;;;;;6.10;91.20;;;;;;5040243;28;19915;-77
2021/12/20 02:41:17;;;;;;;;;;;6.10;91.20;;;;;;5039798;28;19924;-77
2021/12/20 02:43:51;;;;;;;;;;;6.10;91.20;;;;;;5038609;28;20469;-77
2021/12/20 02:46:24;;;;;;;;;;;6.10;91.20;;;;;;5039851;28;19909;-78
2021/12/20 02:48:50;;;;;;;;;;;6.10;91.20;;;;;;5040290;28;20008;-77
2021/12/20 02:51:15;;;;;;;;;;;6.10;91.30;;;;;;5039447;28;19956;-77
2021/12/20 02:53:41;;;;;;;;;;;6.10;91.30;;;;;;5039642;28;19909;-77
2021/12/20 02:56:07;;;;;;;;;;;6.10;91.30;;;;;;5039658;28;19912;-77
2021/12/20 02:58:32;;;;;;;;;;;6.10;91.30;;;;;;5039861;28;19909;-77
2021/12/20 03:00:58;;;;;;;;;;;6.10;91.30;;;;;;5039939;28;19904;-77
2021/12/20 03:03:24;;;;;;;;;;;6.20;91.30;;;;;;5039562;28;19905;-78
2021/12/20 03:05:51;;;;;;;;;;;6.10;91.20;;;;;;5039246;28;19905;-78
2021/12/20 03:08:20;;;;;;;;;;;6.10;91.30;;;;;;5038240;28;19995;-77
2021/12/20 03:10:46;;;;;;;;;;;6.10;91.30;;;;;;5039260;28;19996;-77
2021/12/20 03:13:11;;;;;;;;;;;6.10;91.30;;;;;;5039617;28;19944;-77
2021/12/20 03:15:37;;;;;;;;;;;6.20;91.30;;;;;;5039217;28;19905;-77
2021/12/20 03:18:03;;;;;;;;;;;6.20;91.40;;;;;;5039359;28;20029;-77
2021/12/20 03:20:28;;;;;;;;;;;6.20;91.40;;;;;;5039167;28;19912;-77
2021/12/20 03:22:54;;;;;;;;;;;6.10;91.40;;;;;;5038909;28;19909;-77
2021/12/20 03:25:21;;;;;;;;;;;6.10;91.40;;;;;;5038921;28;19912;-77
2021/12/20 03:27:46;;;;;;;;;;;6.20;91.30;;;;;;5039253;28;19905;-77
2021/12/20 03:30:13;;;;;;;;;;;6.20;91.30;;;;;;5038938;28;19913;-77
2021/12/20 03:32:38;;;;;;;;;;;6.20;91.20;;;;;;5039148;28;20399;-77
2021/12/20 03:35:04;;;;;;;;;;;6.10;91.20;;;;;;5038971;28;19955;-78
2021/12/20 03:37:30;;;;;;;;;;;6.10;91.20;;;;;;5037263;28;20380;-78
2021/12/20 03:39:56;;;;;;;;;;;6.10;91.20;;;;;;5038519;28;19927;-78
2021/12/20 03:42:22;;;;;;;;;;;6.10;91.20;;;;;;5038104;28;19959;-78
2021/12/20 03:44:48;;;;;;;;;;;6.10;91.20;;;;;;5038679;28;20376;-77
2021/12/20 03:47:14;;;;;;;;;;;6.10;91.20;;;;;;5039231;28;20008;-78
2021/12/20 03:49:41;;;;;;;;;;;6.10;91.20;;;;;;5038584;28;19905;-77
2021/12/20 03:52:07;;;;;;;;;;;6.10;91.20;;;;;;5038348;28;19905;-77
2021/12/20 03:54:34;;;;;;;;;;;6.10;91.20;;;;;;5038369;28;19905;-78
2021/12/20 03:57:00;;;;;;;;;;;6.10;91.10;;;;;;5038686;28;20002;-77
2021/12/20 03:59:27;;;;;;;;;;;6.10;91.10;;;;;;5038431;28;19905;-77
2021/12/20 04:01:53;;;;;;;;;;;6.00;91.10;;;;;;5038551;28;19905;-77
2021/12/20 04:04:19;;;;;;;;;;;6.00;91.00;;;;;;5038220;28;19905;-77
2021/12/20 04:06:44;;;;;;;;;;;6.00;91.10;;;;;;5038207;28;19912;-77
2021/12/20 04:09:10;;;;;;;;;;;6.00;91.10;;;;;;5038125;28;19905;-77
2021/12/20 04:11:36;;;;;;;;;;;6.00;91.10;;;;;;5038568;28;19952;-77
2021/12/20 04:14:01;;;;;;;;;;;6.00;91.10;;;;;;5038249;28;19992;-77
2021/12/20 04:16:29;;;;;;;;;;;6.00;91.10;;;;;;5038223;28;20043;-77
2021/12/20 04:18:54;;;;;;;;;;;6.00;91.00;;;;;;5038425;28;19912;-78
2021/12/20 04:21:21;;;;;;;;;;;6.00;91.10;;;;;;5038088;28;19905;-76
2021/12/20 04:23:47;;;;;;;;;;;6.00;91.00;;;;;;5037973;28;19905;-78
2021/12/20 04:26:12;;;;;;;;;;;6.00;91.00;;;;;;5038093;28;19912;-77
2021/12/20 04:28:39;;;;;;;;;;;6.00;90.90;;;;;;5037879;28;19905;-77
2021/12/20 04:31:04;;;;;;;;;;;6.00;91.10;;;;;;5037770;28;19963;-77
2021/12/20 04:33:30;;;;;;;;;;;5.90;90.80;;;;;;5037865;28;19905;-77
2021/12/20 04:35:56;;;;;;;;;;;5.90;90.80;;;;;;5037729;28;19905;-77
2021/12/20 04:38:22;;;;;;;;;;;5.90;90.80;;;;;;5037999;28;19913;-77
2021/12/20 04:40:48;;;;;;;;;;;5.90;90.80;;;;;;5037962;28;20376;-77
2021/12/20 04:43:14;;;;;;;;;;;5.90;90.80;;;;;;5037748;28;19928;-78
2021/12/20 04:45:40;;;;;;;;;;;5.90;90.80;;;;;;5037997;28;19928;-77
2021/12/20 04:48:05;;;;;;;;;;;5.90;90.80;;;;;;5037711;28;19936;-77
2021/12/20 04:50:31;;;;;;;;;;;5.90;90.80;;;;;;5038241;28;20000;-77
2021/12/20 04:52:58;;;;;;;;;;;5.90;90.80;;;;;;5037376;28;19955;-77
2021/12/20 04:55:24;;;;;;;;;;;5.90;90.80;;;;;;5037812;28;20283;-77
2021/12/20 04:57:50;;;;;;;;;;;5.90;90.80;;;;;;5036303;28;19909;-78
2021/12/20 05:00:18;;;;;;;;;;;5.90;90.90;;;;;;5037779;28;19912;-77
2021/12/20 05:02:45;;;;;;;;;;;5.90;90.90;;;;;;5037519;28;19940;-77
2021/12/20 05:05:11;;;;;;;;;;;5.90;90.90;;;;;;5037991;28;19905;-77
2021/12/20 05:07:38;;;;;;;;;;;5.90;90.90;;;;;;5035951;28;19912;-78
2021/12/20 05:10:11;;;;;;;;;;;5.90;90.90;;;;;;5037567;28;19965;-77
2021/12/20 05:12:37;;;;;;;;;;;5.90;90.90;;;;;;5036344;28;19905;-77
2021/12/20 05:15:03;;;;;;;;;;;5.90;90.90;;;;;;5037557;28;20371;-78
2021/12/20 05:17:29;;;;;;;;;;;5.90;90.90;;;;;;5037830;28;19909;-77
2021/12/20 05:19:55;;;;;;;;;;;5.90;90.90;;;;;;5036488;28;20379;-78
2021/12/20 05:22:21;;;;;;;;;;;5.90;90.90;;;;;;5036291;28;19905;-77
2021/12/20 05:24:46;;;;;;;;;;;5.90;91.00;;;;;;5037590;28;19944;-77
2021/12/20 05:27:12;;;;;;;;;;;5.80;90.60;;;;;;5037494;28;19948;-77
2021/12/20 05:29:38;;;;;;;;;;;5.80;90.60;;;;;;5037662;28;19905;-77
2021/12/20 05:32:05;;;;;;;;;;;5.80;90.60;;;;;;5036340;28;19905;-78
2021/12/20 05:34:31;;;;;;;;;;;5.80;90.50;;;;;;5037776;28;19975;-78
2021/12/20 05:36:57;;;;;;;;;;;5.80;90.40;;;;;;5037179;28;19909;-78
2021/12/20 05:39:23;;;;;;;;;;;5.70;90.60;;;;;;5037320;28;19905;-78
2021/12/20 05:41:48;;;;;;;;;;;5.70;90.20;;;;;;5040033;28;20007;-78
2021/12/20 05:44:14;;;;;;;;;;;5.70;90.20;;;;;;5041251;28;20426;-78
2021/12/20 05:46:39;;;;;;;;;;;5.70;90.20;;;;;;5041084;28;19905;-78
2021/12/20 05:49:05;;;;;;;;;;;5.60;90.20;;;;;;5041172;28;19905;-78
2021/12/20 05:51:30;;;;;;;;;;;5.60;90.20;;;;;;5040695;28;19905;-77
2021/12/20 05:53:56;;;;;;;;;;;5.60;90.20;;;;;;5040879;28;19905;-77
2021/12/20 05:56:22;;;;;;;;;;;5.60;90.20;;;;;;5040993;28;20778;-77
2021/12/20 05:58:47;;;;;;;;;;;5.60;90.30;;;;;;5040788;28;19909;-77
2021/12/20 06:01:13;;;;;;;;;;;5.60;90.30;;;;;;5040652;28;19912;-77
2021/12/20 06:03:39;;;;;;;;;;;5.60;90.30;;;;;;5039587;28;19988;-78
2021/12/20 06:06:04;;;;;;;;;;;5.60;90.30;;;;;;5039193;28;19912;-78
2021/12/20 06:08:30;;;;;;;;;;;5.60;90.30;;;;;;5039503;28;19913;-77
2021/12/20 06:10:55;;;;;;;;;;;5.60;90.40;;;;;;5040514;28;19905;-77
2021/12/20 06:13:21;;;;;;;;;;;5.50;90.30;;;;;;5040762;28;20391;-77
2021/12/20 06:15:47;;;;;;;;;;;5.50;90.30;;;;;;5040809;28;19905;-77
2021/12/20 06:18:12;;;;;;;;;;;5.60;90.40;;;;;;5040403;28;19909;-78
2021/12/20 06:20:42;;;;;;;;;;;5.50;90.40;;;;;;5040198;28;19912;-77
2021/12/20 06:23:08;;;;;;;;;;;5.50;90.30;;;;;;5039314;28;19907;-77
2021/12/20 06:25:34;;;;;;;;;;;5.50;90.40;;;;;;5040248;28;19905;-77
2021/12/20 06:27:59;;;;;;;;;;;5.50;90.40;;;;;;5040209;28;19905;-77
2021/12/20 06:30:25;;;;;;;;;;;5.50;90.50;;;;;;5039561;28;19908;-77
2021/12/20 06:32:51;;;;;;;;;;;5.60;90.50;;;;;;5040285;28;19951;-77
2021/12/20 06:35:16;;;;;;;;;;;5.60;90.50;;;;;;5040057;28;20399;-77
2021/12/20 06:37:48;;;;;;;;;;;5.50;90.40;;;;;;5039751;28;19913;-75
2021/12/20 06:40:14;;;;;;;;;;;5.50;90.40;;;;;;5040105;28;19952;-75
2021/12/20 06:42:40;;;;;;;;;;;5.50;90.40;;;;;;5040280;28;19951;-77
2021/12/20 06:45:06;;;;;;;;;;;5.50;90.40;;;;;;5040073;28;19905;-77
2021/12/20 06:47:32;;;;;;;;;;;5.50;90.40;;;;;;5040286;28;20000;-78
2021/12/20 06:49:58;;;;;;;;;;;5.50;90.40;;;;;;5040241;28;19952;-80
2021/12/20 06:52:23;;;;;;;;;;;5.50;90.40;;;;;;5037912;28;20418;-79
2021/12/20 06:54:51;;;;;;;;;;;5.50;90.40;;;;;;5038747;28;19905;-76
2021/12/20 06:57:16;;;;;;;;;;;5.50;90.30;;;;;;5039747;28;19940;-78
2021/12/20 06:59:42;;;;;;;;;;;5.50;90.30;;;;;;5040254;28;20267;-78
2021/12/20 07:02:08;;;;;;;;;;;5.40;90.30;;;;;;5039571;28;19905;-78
2021/12/20 07:04:33;;;;;;;;;;;5.40;90.30;;;;;;5039728;28;19912;-78
2021/12/20 07:06:59;;;;;;;;;;;5.40;90.30;;;;;;5039360;28;19940;-78
2021/12/20 07:09:25;;;;;;;;;;;5.40;90.30;;;;;;5039405;28;19911;-77
2021/12/20 07:11:50;;;;;;;;;;;5.40;90.30;;;;;;5039584;28;19909;-77
2021/12/20 07:14:16;;;;;;;;;;;5.40;90.30;;;;;;5039424;28;20801;-77
2021/12/20 07:16:42;;;;;;;;;;;5.40;90.20;;;;;;5039360;28;19909;-77
2021/12/20 07:19:08;;;;;;;;;;;5.40;90.10;;;;;;5039666;28;19912;-77
2021/12/20 07:21:33;;;;;;;;;;;5.40;90.10;;;;;;5038940;28;19909;-76
2021/12/20 07:23:59;;;;;;;;;;;5.30;90.00;;;;;;5039494;28;19905;-77
2021/12/20 07:26:24;;;;;;;;;;;5.30;90.10;;;;;;5039029;28;19905;-77
2021/12/20 07:28:50;;;;;;;;;;;5.30;90.00;;;;;;5039071;28;19955;-77
2021/12/20 07:31:16;;;;;;;;;;;5.30;90.00;;;;;;5039077;28;19912;-77
2021/12/20 07:33:42;;;;;;;;;;;5.30;90.00;;;;;;5037642;28;19931;-77
2021/12/20 07:36:08;;;;;;;;;;;5.30;90.30;;;;;;5038819;28;19905;-78
2021/12/20 07:38:34;;;;;;;;;;;5.30;90.10;;;;;;5038737;28;19915;-77
2021/12/20 07:41:00;;;;;;;;;;;5.30;90.00;;;;;;5038719;28;19917;-77
2021/12/20 07:43:26;;;;;;;;;;;5.30;90.10;;;;;;5038822;28;20326;-77
2021/12/20 07:45:52;;;;;;;;;;;5.30;90.10;;;;;;5039066;28;20275;-77
2021/12/20 07:48:18;;;;;;;;;;;5.30;90.10;;;;;;5038803;28;19905;-78
2021/12/20 07:50:45;;;;;;;;;;;5.20;90.00;;;;;;5037057;28;19912;-78
2021/12/20 07:53:11;;;;;;;;;;;5.30;90.10;;;;;;5039062;28;19909;-78
2021/12/20 07:55:37;;;;;;;;;;;5.20;90.00;;;;;;5038551;28;19905;-78
2021/12/20 07:58:03;;;;;;;;;;;5.20;90.10;;;;;;5038711;28;19909;-77
2021/12/20 08:00:29;;;;;;;;;;;5.20;90.40;;;;;;5038461;28;19905;-77
2021/12/20 08:02:56;;;;;;;;;;;5.20;90.10;;;;;;5037164;28;19905;-78
2021/12/20 08:05:22;;;;;;;;;;;5.20;90.10;;;;;;5037484;28;19905;-77
2021/12/20 08:07:50;;;;;;;;;;;5.20;90.10;;;;;;5038265;28;19991;-77
2021/12/20 08:10:23;;;;;;;;;;;5.20;90.10;;;;;;5038486;28;19905;-77
2021/12/20 08:12:49;;;;;;;;;;;5.20;90.10;;;;;;5037143;28;19936;-75
2021/12/20 08:15:15;;;;;;;;;;;5.20;90.10;;;;;;5038571;28;20342;-75
2021/12/20 08:17:41;;;;;;;;;;;5.20;90.10;;;;;;5036955;28;19909;-76
2021/12/20 08:20:07;;;;;;;;;;;5.20;90.10;;;;;;5036860;28;20338;-77
2021/12/20 08:22:33;;;;;;;;;;;5.20;90.00;;;;;;5037864;28;19928;-78
2021/12/20 08:24:59;;;;;;;;;;;5.20;90.00;;;;;;5037915;28;19905;-79
2021/12/20 08:27:25;;;;;;;;;;;5.20;90.10;;;;;;5036697;28;19912;-79
2021/12/20 08:29:51;;;;;;;;;;;5.20;90.10;;;;;;5038379;28;19905;-76
2021/12/20 08:32:16;;;;;;;;;;;5.20;90.10;;;;;;5038042;28;20029;-76
2021/12/20 08:34:42;;;;;;;;;;;5.20;90.20;;;;;;5038065;28;19913;-75
2021/12/20 08:37:07;;;;;;;;;;;5.20;90.10;;;;;;5037987;28;19909;-76
2021/12/20 08:39:34;;;;;;;;;;;5.20;90.10;;;;;;5038149;28;19905;-75
2021/12/20 08:42:01;;;;;;;;;;;5.20;90.10;;;;;;5038164;28;19976;-76
2021/12/20 08:44:27;;;;;;;;;;;5.20;90.10;;;;;;5038145;28;19912;-75
2021/12/20 08:46:53;;;;;;;;;;;5.20;90.40;;;;;;5038164;28;20345;-76
2021/12/20 08:49:18;;;;;;;;;;;5.20;90.20;;;;;;5037887;28;19912;-75
2021/12/20 08:51:45;;;;;;;;;;;5.20;90.30;;;;;;5037633;28;19928;-76
2021/12/20 08:54:11;;;;;;;;;;;5.20;90.30;;;;;;5037631;28;19912;-76
2021/12/20 08:56:37;;;;;;;;;;;5.30;90.30;;;;;;5036850;28;19927;-75
2021/12/20 08:59:03;;;;;;;;;;;5.30;90.30;;;;;;5037628;28;20427;-76
2021/12/20 09:01:29;;;;;;;;;;;5.20;90.20;;;;;;5038033;28;19905;-75
2021/12/20 09:03:57;;;;;;;;;;;5.30;90.30;;;;;;5037765;28;19905;-78
2021/12/20 09:06:24;;;;;;;;;;;5.30;90.30;;;;;;5037694;28;19936;-75
2021/12/20 09:08:53;;;;;;;;;;;5.30;90.30;;;;;;5037372;28;19905;-76
2021/12/20 09:11:18;;;;;;;;;;;5.30;90.30;;;;;;5037646;28;19928;-77
2021/12/20 09:13:44;;;;;;;;;;;5.30;90.30;;;;;;5036195;28;20315;-75
2021/12/20 09:16:10;;;;;;;;;;;5.30;90.30;;;;;;5039427;28;19905;-75
2021/12/20 09:18:35;;;;;;;;;;;5.30;90.30;;;;;;5041411;28;19963;-75
2021/12/20 09:21:01;;;;;;;;;;;5.30;90.30;;;;;;5041286;28;19905;-75
2021/12/20 09:23:29;;;;;;;;;;;5.30;90.30;;;;;;5041546;28;19912;-75
2021/12/20 09:25:55;;;;;;;;;;;5.30;90.40;;;;;;5041471;28;19913;-78
2021/12/20 09:28:21;;;;;;;;;;;5.40;90.40;;;;;;5041158;28;19905;-75
2021/12/20 09:30:47;;;;;;;;;;;5.40;90.40;;;;;;5041716;28;19927;-75
2021/12/20 09:33:12;;;;;;;;;;;5.40;90.40;;;;;;5041130;28;19909;-75
2021/12/20 09:35:38;;;;;;;;;;;5.40;90.40;;;;;;5041243;28;19905;-75
2021/12/20 09:38:08;;;;;;;;;;;5.40;90.40;;;;;;5041028;28;19919;-75
2021/12/20 09:40:37;;;;;;;;;;;5.40;90.40;;;;;;5041119;28;19967;-75
2021/12/20 09:43:08;;;;;;;;;;;5.40;90.40;;;;;;5040999;28;19905;-75
2021/12/20 09:45:34;;;;;;;;;;;5.40;90.40;;;;;;5041405;28;19905;-75
2021/12/20 09:48:00;;;;;;;;;;;5.40;90.30;;;;;;5039833;28;20387;-75
2021/12/20 09:50:26;;;;;;;;;;;5.40;90.30;;;;;;5039581;28;19905;-76
2021/12/20 09:52:52;;;;;;;;;;;5.40;90.30;;;;;;5039313;28;20372;-76
2021/12/20 09:55:19;;;;;;;;;;;5.50;90.40;;;;;;5041022;28;19927;-76
2021/12/20 09:57:46;;;;;;;;;;;5.50;90.40;;;;;;5040642;28;19955;-75
2021/12/20 10:00:13;;;;;;;;;;;5.50;90.40;;;;;;5040859;28;19905;-76
2021/12/20 10:02:41;;;;;;;;;;;5.50;90.40;;;;;;5039283;28;19911;-75
2021/12/20 10:05:07;;;;;;;;;;;5.50;90.40;;;;;;5040765;28;19905;-76
2021/12/20 10:07:33;;;;;;;;;;;5.50;90.30;;;;;;5038965;28;20375;-76
2021/12/20 10:10:00;;;;;;;;;;;5.50;90.30;;;;;;5040574;28;19912;-76
2021/12/20 10:12:26;;;;;;;;;;;5.50;90.20;;;;;;5040456;28;20364;-75
2021/12/20 10:15:04;;;;;;;;;;;5.50;90.30;;;;;;5039505;28;19916;-76
2021/12/20 10:17:34;;;;;;;;;;;5.50;90.30;;;;;;5039145;28;19909;-76
2021/12/20 10:20:14;;;;;;;;;;;5.60;90.20;;;;;;5040551;28;20383;-77
2021/12/20 10:22:40;;;;;;;;;;;5.60;90.50;;;;;;5040129;28;19928;-76
2021/12/20 10:25:19;;;;;;;;;;;5.60;90.20;;;;;;5038758;28;19909;-76
2021/12/20 10:27:45;;;;;;;;;;;5.60;90.20;;;;;;5037998;28;20284;-76
2021/12/20 10:30:29;;;;;;;;;;;5.60;90.20;;;;;;5040172;28;19905;-75
2021/12/20 10:32:55;;;;;;;;;;;5.60;90.10;;;;;;5040132;28;19905;-76
2021/12/20 10:35:31;;;;;;;;;;;5.60;90.00;;;;;;5027055;28;20008;-76
2021/12/20 10:38:01;;;;;;;;;;;5.60;90.00;;;;;;5040021;28;19959;-76
2021/12/20 10:40:26;;;;;;;;;;;5.60;90.00;;;;;;5038901;28;19916;-76
2021/12/20 10:42:53;;;;;;;;;;;5.60;90.00;;;;;;5038619;28;19909;-76
2021/12/20 10:45:20;;;;;;;;;;;5.60;89.90;;;;;;5038991;28;19905;-76
2021/12/20 10:47:50;;;;;;;;;;;5.60;89.90;;;;;;5040132;28;19905;-76
2021/12/20 10:50:24;;;;;;;;;;;5.60;89.90;;;;;;5040059;28;19998;-76
2021/12/20 10:52:50;;;;;;;;;;;5.60;89.80;;;;;;5038515;28;19905;-76
2021/12/20 10:55:36;;;;;;;;;;;5.70;89.80;;;;;;5040239;28;19908;-76
2021/12/20 10:58:34;;;;;;;;;;;5.70;89.80;;;;;;5039674;28;20360;-76
2021/12/20 11:01:05;;;;;;;;;;;5.70;89.70;;;;;;5037855;28;19972;-75
2021/12/20 11:03:40;;;;;;;;;;;5.70;89.50;;;;;;5039832;28;19905;-76
2021/12/20 11:11:30;;;;;;;;;;;5.70;89.60;;;;;;5039756;28;19912;-76
2021/12/20 11:13:57;;;;;;;;;;;5.80;89.60;;;;;;5039440;28;19905;-76
2021/12/20 11:16:26;;;;;;;;;;;5.80;89.70;;;;;;5038135;28;19912;-76
2021/12/20 11:19:10;;;;;;;;;;;5.80;89.70;;;;;;5039347;28;19917;-76
2021/12/20 11:21:36;;;;;;;;;;;5.80;89.50;;;;;;5037649;28;19948;-76
2021/12/20 11:24:02;;;;;;;;;;;5.80;89.40;;;;;;5038155;28;20396;-76
2021/12/20 11:26:28;;;;;;;;;;;5.90;89.40;;;;;;5039018;28;19905;-76
2021/12/20 11:28:57;;;;;;;;;;;5.90;89.30;;;;;;5039398;28;19950;-76
2021/12/20 11:31:23;;;;;;;;;;;5.90;89.30;;;;;;5039428;28;19950;-75
2021/12/20 11:33:49;;;;;;;;;;;5.90;89.20;;;;;;5039063;28;19905;-75
2021/12/20 11:36:15;;;;;;;;;;;5.90;89.10;;;;;;5037332;28;19913;-75
2021/12/20 11:38:41;;;;;;;;;;;5.90;89.10;;;;;;5037441;28;19909;-76
2021/12/20 11:41:06;;;;;;;;;;;5.90;89.20;;;;;;5037660;28;19924;-75
2021/12/20 11:43:32;;;;;;;;;;;6.00;89.20;;;;;;5038883;28;20083;-76
2021/12/20 11:45:59;;;;;;;;;;;6.00;89.20;;;;;;5038825;28;20383;-76
2021/12/20 11:48:27;;;;;;;;;;;6.00;89.20;;;;;;5037532;28;19905;-76
2021/12/20 11:50:56;;;;;;;;;;;6.00;89.00;;;;;;5038450;28;19905;-76
2021/12/20 11:53:22;;;;;;;;;;;6.00;88.70;;;;;;5038689;28;20007;-76
2021/12/20 11:55:50;;;;;;;;;;;6.00;88.60;;;;;;5038414;28;19939;-76
2021/12/20 11:58:27;;;;;;;;;;;6.00;88.70;;;;;;5038821;28;19978;-76
2021/12/20 12:00:55;;;;;;;;;;;6.10;88.90;;;;;;5037206;28;19947;-75
2021/12/20 12:03:24;;;;;;;;;;;6.10;88.60;;;;;;5037151;28;20364;-76
2021/12/20 12:05:53;;;;;;;;;;;6.10;88.40;;;;;;5036779;28;19912;-76
2021/12/20 12:08:34;;;;;;;;;;;6.10;88.00;;;;;;5038745;28;20435;-76
2021/12/20 12:11:06;;;;;;;;;;;6.10;87.90;;;;;;5024581;28;19912;-76
2021/12/20 12:13:49;;;;;;;;;;;6.10;87.80;;;;;;5037234;28;19916;-76
2021/12/20 12:16:29;;;;;;;;;;;6.10;87.80;;;;;;5038705;28;19905;-76
2021/12/20 12:18:57;;;;;;;;;;;6.10;87.70;;;;;;5038089;28;20386;-76
2021/12/20 12:21:32;;;;;;;;;;;6.10;87.60;;;;;;5038188;28;19909;-76
2021/12/20 12:23:58;;;;;;;;;;;6.00;87.50;;;;;;5038365;28;19955;-76
2021/12/20 12:26:34;;;;;;;;;;;6.00;87.70;;;;;;5036692;28;19905;-76
2021/12/20 12:29:00;;;;;;;;;;;6.00;87.90;;;;;;5026244;28;19905;-76
2021/12/20 12:31:27;;;;;;;;;;;6.00;88.00;;;;;;5038004;28;20356;-76
2021/12/20 12:34:05;;;;;;;;;;;6.00;88.20;;;;;;5038053;28;19928;-76
2021/12/20 12:36:38;;;;;;;;;;;6.00;88.20;;;;;;5036335;28;19916;-76
2021/12/20 12:39:24;;;;;;;;;;;6.00;88.40;;;;;;5037971;28;19963;-76
2021/12/20 12:41:59;;;;;;;;;;;6.10;88.60;;;;;;5036478;28;19916;-76
2021/12/20 12:44:27;;;;;;;;;;;6.10;88.40;;;;;;5037978;28;19912;-76
2021/12/20 12:47:14;;;;;;;;;;;6.10;88.60;;;;;;5038056;28;20287;-75
2021/12/20 12:49:50;;;;;;;;;;;6.10;88.60;;;;;;5037699;28;19905;-77
2021/12/20 12:52:15;;;;;;;;;;;6.20;88.40;;;;;;5037097;28;19956;-76
2021/12/20 12:54:45;;;;;;;;;;;6.20;88.30;;;;;;5037561;28;19905;-76
2021/12/20 12:57:10;;;;;;;;;;;6.20;88.10;;;;;;5037714;28;19975;-76
2021/12/20 12:59:39;;;;;;;;;;;6.20;88.10;;;;;;5037680;28;19905;-76
2021/12/20 13:02:09;;;;;;;;;;;6.20;88.10;;;;;;5036325;28;19951;-76
2021/12/20 13:04:49;;;;;;;;;;;6.20;87.90;;;;;;5037245;28;19905;-74
2021/12/20 13:07:20;;;;;;;;;;;6.20;87.70;;;;;;5020527;28;20318;-75
2021/12/20 13:09:47;;;;;;;;;;;6.20;87.40;;;;;;5029043;28;19912;-77
2021/12/20 13:12:18;;;;;;;;;;;6.10;87.70;;;;;;5035862;28;20368;-74
2021/12/20 13:14:57;;;;;;;;;;;6.10;87.00;;;;;;5031995;28;19905;-73
2021/12/20 13:17:35;;;;;;;;;;;6.10;86.80;;;;;;5031861;28;19916;-73
2021/12/20 13:20:28;;;;;;;;;;;6.00;86.80;;;;;;5035156;28;19905;-75
2021/12/20 13:23:05;;;;;;;;;;;6.00;87.00;;;;;;5036172;28;19912;-74
2021/12/20 13:25:51;;;;;;;;;;;6.00;87.10;;;;;;5037259;28;20364;-73
2021/12/20 13:28:21;;;;;;;;;;;6.10;87.00;;;;;;5027362;28;19936;-76
2021/12/20 13:31:05;;;;;;;;;;;6.10;87.10;;;;;;5022497;28;19929;-75
2021/12/20 13:33:41;;;;;;;;;;;6.10;87.20;;;;;;5034748;28;19905;-76
2021/12/20 13:36:09;;;;;;;;;;;6.10;87.10;;;;;;5036666;28;19911;-77
2021/12/20 13:38:36;;;;;;;;;;;6.10;87.30;;;;;;5030604;28;20351;-77
2021/12/20 13:41:09;;;;;;;;;;;6.10;87.00;;;;;;5032517;28;19917;-75
2021/12/20 13:43:42;;;;;;;;;;;6.10;86.70;;;;;;5035841;28;19969;-75
2021/12/20 13:46:29;;;;;;;;;;;6.10;86.80;;;;;;5037089;28;19905;-75
2021/12/20 13:48:55;;;;;;;;;;;6.10;86.90;;;;;;5037046;28;19905;-76
2021/12/20 13:51:21;;;;;;;;;;;6.10;87.10;;;;;;5036814;28;20383;-75
2021/12/20 13:53:47;;;;;;;;;;;6.10;87.10;;;;;;5036821;28;19905;-75
2021/12/20 13:56:13;;;;;;;;;;;6.10;87.20;;;;;;5036979;28;19940;-75
2021/12/20 13:58:40;;;;;;;;;;;6.10;87.30;;;;;;5036872;28;19940;-75
2021/12/20 14:01:06;;;;;;;;;;;6.10;87.40;;;;;;5036847;28;19909;-76
2021/12/20 14:03:36;;;;;;;;;;;6.10;87.40;;;;;;5038905;28;19909;-76
2021/12/20 14:06:02;;;;;;;;;;;6.10;87.40;;;;;;5038009;28;19905;-76
2021/12/20 14:08:28;;;;;;;;;;;6.20;87.50;;;;;;5039865;28;19905;-76
2021/12/20 14:10:54;;;;;;;;;;;6.10;87.30;;;;;;5039108;28;19905;-76
2021/12/20 14:13:21;;;;;;;;;;;6.20;87.50;;;;;;5040081;28;19911;-76
2021/12/20 14:16:00;;;;;;;;;;;6.20;87.30;;;;;;5035489;28;19906;-76
2021/12/20 14:18:33;;;;;;;;;;;6.20;87.00;;;;;;5040264;28;19916;-76
2021/12/20 14:21:00;;;;;;;;;;;6.10;87.10;;;;;;5039675;28;19948;-75
2021/12/20 14:23:34;;;;;;;;;;;6.10;87.00;;;;;;5040195;28;19905;-76
2021/12/20 14:26:01;;;;;;;;;;;6.10;86.90;;;;;;5039964;28;19905;-76
2021/12/20 14:28:28;;;;;;;;;;;6.10;87.00;;;;;;5040041;28;19955;-76
2021/12/20 14:30:54;;;;;;;;;;;6.10;86.90;;;;;;5047832;28;19905;-75
2021/12/20 14:33:22;;;;;;;;;;;6.10;86.80;;;;;;5046198;28;19905;-76
2021/12/20 14:35:52;;;;;;;;;;;6.10;86.80;;;;;;5039534;28;19967;-76
2021/12/20 14:38:37;;;;;;;;;;;6.10;86.90;;;;;;5039841;28;19909;-76
2021/12/20 14:41:11;;;;;;;;;;;6.00;87.00;;;;;;5032778;28;19917;-76
2021/12/20 14:43:40;;;;;;;;;;;6.00;87.20;;;;;;5037625;28;19927;-76
2021/12/20 14:46:12;;;;;;;;;;;6.00;87.20;;;;;;5039829;28;19948;-75
2021/12/20 14:48:45;;;;;;;;;;;6.00;87.30;;;;;;5039469;28;19927;-74
2021/12/20 14:51:15;;;;;;;;;;;6.00;87.50;;;;;;5039143;28;19928;-82
2021/12/20 14:53:41;;;;;;;;;;;6.10;87.70;;;;;;5039382;28;20299;-76